sensor_id;sensor_type;location;lat;lon;timestamp;temperature;humidity
16517;DHT22;8371;52.272;9.746;2023-11-19T00:00:26;9.20;85.00
16517;DHT22;8371;52.272;9.746;2023-11-19T00:02:51;9.20;85.10
16517;DHT22;8371;52.272;9.746;2023-11-19T00:05:17;9.20;85.10
16517;DHT22;8371;52.272;9.746;2023-11-19T00:07:44;9.30;85.20
16517;DHT22;8371;52.272;9.746;2023-11-19T00:10:11;9.30;85.20
16517;DHT22;8371;52.272;9.746;2023-11-19T00:12:41;9.30;85.30
16517;DHT22;8371;52.272;9.746;2023-11-19T00:15:08;9.30;85.20
16517;DHT22;8371;52.272;9.746;2023-11-19T00:17:41;9.30;85.20
16517;DHT22;8371;52.272;9.746;2023-11-19T00:20:09;9.40;85.30
16517;DHT22;8371;52.272;9.746;2023-11-19T00:22:35;9.40;85.40
16517;DHT22;8371;52.272;9.746;2023-11-19T00:25:01;9.40;85.50
16517;DHT22;8371;52.272;9.746;2023-11-19T00:27:27;9.40;85.40
16517;DHT22;8371;52.272;9.746;2023-11-19T00:29:53;9.40;85.40
16517;DHT22;8371;52.272;9.746;2023-11-19T00:32:19;9.40;85.40
16517;DHT22;8371;52.272;9.746;2023-11-19T00:34:44;9.50;85.40
16517;DHT22;8371;52.272;9.746;2023-11-19T00:37:10;9.50;84.80
16517;DHT22;8371;52.272;9.746;2023-11-19T00:39:36;9.50;85.50
16517;DHT22;8371;52.272;9.746;2023-11-19T00:42:02;9.50;85.70
16517;DHT22;8371;52.272;9.746;2023-11-19T00:44:28;9.50;85.50
16517;DHT22;8371;52.272;9.746;2023-11-19T00:46:53;9.60;85.60
16517;DHT22;8371;52.272;9.746;2023-11-19T00:49:19;9.60;85.60
16517;DHT22;8371;52.272;9.746;2023-11-19T00:51:45;9.60;85.60
16517;DHT22;8371;52.272;9.746;2023-11-19T00:54:11;9.60;85.70
16517;DHT22;8371;52.272;9.746;2023-11-19T00:56:36;9.60;85.70
16517;DHT22;8371;52.272;9.746;2023-11-19T00:59:03;9.70;85.80
16517;DHT22;8371;52.272;9.746;2023-11-19T01:01:29;9.70;85.90
16517;DHT22;8371;52.272;9.746;2023-11-19T01:03:55;9.80;86.00
16517;DHT22;8371;52.272;9.746;2023-11-19T01:06:29;9.80;86.00
16517;DHT22;8371;52.272;9.746;2023-11-19T01:08:56;9.90;86.10
16517;DHT22;8371;52.272;9.746;2023-11-19T01:11:26;9.90;86.10
16517;DHT22;8371;52.272;9.746;2023-11-19T01:13:52;9.90;86.00
16517;DHT22;8371;52.272;9.746;2023-11-19T01:16:18;10.00;86.10
16517;DHT22;8371;52.272;9.746;2023-11-19T01:18:46;10.00;86.10
16517;DHT22;8371;52.272;9.746;2023-11-19T01:21:12;10.10;86.20
16517;DHT22;8371;52.272;9.746;2023-11-19T01:23:40;10.10;87.00
16517;DHT22;8371;52.272;9.746;2023-11-19T01:26:08;10.10;86.30
16517;DHT22;8371;52.272;9.746;2023-11-19T01:28:36;10.20;86.30
16517;DHT22;8371;52.272;9.746;2023-11-19T01:31:02;10.20;86.40
16517;DHT22;8371;52.272;9.746;2023-11-19T01:33:29;10.20;86.40
16517;DHT22;8371;52.272;9.746;2023-11-19T01:35:56;10.30;86.40
16517;DHT22;8371;52.272;9.746;2023-11-19T01:38:23;10.30;86.40
16517;DHT22;8371;52.272;9.746;2023-11-19T01:40:49;10.30;86.40
16517;DHT22;8371;52.272;9.746;2023-11-19T01:43:32;10.40;86.50
16517;DHT22;8371;52.272;9.746;2023-11-19T01:45:58;10.40;86.40
16517;DHT22;8371;52.272;9.746;2023-11-19T01:48:24;10.40;86.30
16517;DHT22;8371;52.272;9.746;2023-11-19T01:50:50;10.50;86.40
16517;DHT22;8371;52.272;9.746;2023-11-19T01:53:18;10.50;86.30
16517;DHT22;8371;52.272;9.746;2023-11-19T01:55:48;10.50;86.30
16517;DHT22;8371;52.272;9.746;2023-11-19T01:58:14;10.60;86.50
16517;DHT22;8371;52.272;9.746;2023-11-19T02:00:40;10.60;86.30
16517;DHT22;8371;52.272;9.746;2023-11-19T02:03:07;10.60;86.40
16517;DHT22;8371;52.272;9.746;2023-11-19T02:05:33;10.60;86.40
16517;DHT22;8371;52.272;9.746;2023-11-19T02:08:01;10.70;86.50
16517;DHT22;8371;52.272;9.746;2023-11-19T02:10:27;10.70;86.70
16517;DHT22;8371;52.272;9.746;2023-11-19T02:12:52;10.70;86.70
16517;DHT22;8371;52.272;9.746;2023-11-19T02:15:18;10.80;86.70
16517;DHT22;8371;52.272;9.746;2023-11-19T02:17:44;10.80;86.80
16517;DHT22;8371;52.272;9.746;2023-11-19T02:20:10;10.80;86.70
16517;DHT22;8371;52.272;9.746;2023-11-19T02:22:38;10.90;86.90
16517;DHT22;8371;52.272;9.746;2023-11-19T02:25:12;10.90;86.80
16517;DHT22;8371;52.272;9.746;2023-11-19T02:27:59;10.90;86.70
16517;DHT22;8371;52.272;9.746;2023-11-19T02:30:26;11.00;86.70
16517;DHT22;8371;52.272;9.746;2023-11-19T02:32:58;11.00;86.60
16517;DHT22;8371;52.272;9.746;2023-11-19T02:35:27;10.90;86.50
16517;DHT22;8371;52.272;9.746;2023-11-19T02:37:54;11.00;86.50
16517;DHT22;8371;52.272;9.746;2023-11-19T02:40:20;11.00;86.60
16517;DHT22;8371;52.272;9.746;2023-11-19T02:42:47;11.00;86.50
16517;DHT22;8371;52.272;9.746;2023-11-19T02:45:14;11.00;86.60
16517;DHT22;8371;52.272;9.746;2023-11-19T02:47:40;11.10;86.70
16517;DHT22;8371;52.272;9.746;2023-11-19T02:50:09;11.10;86.70
16517;DHT22;8371;52.272;9.746;2023-11-19T02:52:36;11.10;86.70
16517;DHT22;8371;52.272;9.746;2023-11-19T02:55:03;11.10;86.80
16517;DHT22;8371;52.272;9.746;2023-11-19T02:57:31;11.10;86.80
16517;DHT22;8371;52.272;9.746;2023-11-19T02:59:57;11.10;86.80
16517;DHT22;8371;52.272;9.746;2023-11-19T03:02:24;11.20;86.90
16517;DHT22;8371;52.272;9.746;2023-11-19T03:04:51;11.20;87.00
16517;DHT22;8371;52.272;9.746;2023-11-19T03:07:17;11.20;87.00
16517;DHT22;8371;52.272;9.746;2023-11-19T03:09:43;11.30;87.00
16517;DHT22;8371;52.272;9.746;2023-11-19T03:12:09;11.30;87.00
16517;DHT22;8371;52.272;9.746;2023-11-19T03:14:36;11.40;87.00
16517;DHT22;8371;52.272;9.746;2023-11-19T03:17:02;11.40;87.00
16517;DHT22;8371;52.272;9.746;2023-11-19T03:19:28;11.40;86.90
16517;DHT22;8371;52.272;9.746;2023-11-19T03:21:54;11.40;86.90
16517;DHT22;8371;52.272;9.746;2023-11-19T03:24:20;11.40;86.70
16517;DHT22;8371;52.272;9.746;2023-11-19T03:26:49;11.40;86.70
16517;DHT22;8371;52.272;9.746;2023-11-19T03:29:24;11.40;86.70
16517;DHT22;8371;52.272;9.746;2023-11-19T03:31:51;11.50;86.80
16517;DHT22;8371;52.272;9.746;2023-11-19T03:34:17;11.40;86.80
16517;DHT22;8371;52.272;9.746;2023-11-19T03:36:42;11.50;86.90
16517;DHT22;8371;52.272;9.746;2023-11-19T03:39:08;11.50;87.00
16517;DHT22;8371;52.272;9.746;2023-11-19T03:41:34;11.50;87.00
16517;DHT22;8371;52.272;9.746;2023-11-19T03:44:00;11.50;87.10
16517;DHT22;8371;52.272;9.746;2023-11-19T03:46:25;11.60;87.10
16517;DHT22;8371;52.272;9.746;2023-11-19T03:48:51;11.60;87.00
16517;DHT22;8371;52.272;9.746;2023-11-19T03:51:17;11.60;87.00
16517;DHT22;8371;52.272;9.746;2023-11-19T03:53:43;11.60;87.00
16517;DHT22;8371;52.272;9.746;2023-11-19T03:56:10;11.60;87.10
16517;DHT22;8371;52.272;9.746;2023-11-19T03:58:36;11.70;87.10
16517;DHT22;8371;52.272;9.746;2023-11-19T04:01:04;11.70;87.10
16517;DHT22;8371;52.272;9.746;2023-11-19T04:03:30;11.70;87.20
16517;DHT22;8371;52.272;9.746;2023-11-19T04:05:56;11.80;87.30
16517;DHT22;8371;52.272;9.746;2023-11-19T04:08:22;11.80;87.30
16517;DHT22;8371;52.272;9.746;2023-11-19T04:10:48;11.80;87.30
16517;DHT22;8371;52.272;9.746;2023-11-19T04:13:13;11.80;87.30
16517;DHT22;8371;52.272;9.746;2023-11-19T04:15:39;11.90;87.40
16517;DHT22;8371;52.272;9.746;2023-11-19T04:18:05;11.90;87.30
16517;DHT22;8371;52.272;9.746;2023-11-19T04:20:31;11.90;87.40
16517;DHT22;8371;52.272;9.746;2023-11-19T04:22:57;11.90;87.30
16517;DHT22;8371;52.272;9.746;2023-11-19T04:25:25;12.00;87.50
16517;DHT22;8371;52.272;9.746;2023-11-19T04:27:51;12.00;87.50
16517;DHT22;8371;52.272;9.746;2023-11-19T04:30:18;12.00;87.50
16517;DHT22;8371;52.272;9.746;2023-11-19T04:32:44;12.10;87.70
16517;DHT22;8371;52.272;9.746;2023-11-19T04:35:10;12.10;87.60
16517;DHT22;8371;52.272;9.746;2023-11-19T04:37:36;12.10;87.80
16517;DHT22;8371;52.272;9.746;2023-11-19T04:40:03;12.20;87.80
16517;DHT22;8371;52.272;9.746;2023-11-19T04:42:29;12.20;87.90
16517;DHT22;8371;52.272;9.746;2023-11-19T04:44:55;12.30;88.10
16517;DHT22;8371;52.272;9.746;2023-11-19T04:47:21;12.30;88.10
16517;DHT22;8371;52.272;9.746;2023-11-19T04:49:47;12.40;88.20
16517;DHT22;8371;52.272;9.746;2023-11-19T04:52:12;12.40;88.30
16517;DHT22;8371;52.272;9.746;2023-11-19T04:54:42;12.50;88.20
16517;DHT22;8371;52.272;9.746;2023-11-19T04:57:09;12.50;88.20
16517;DHT22;8371;52.272;9.746;2023-11-19T04:59:38;12.60;88.20
16517;DHT22;8371;52.272;9.746;2023-11-19T05:02:04;12.60;88.10
16517;DHT22;8371;52.272;9.746;2023-11-19T05:04:31;12.60;88.00
16517;DHT22;8371;52.272;9.746;2023-11-19T05:06:56;12.70;87.90
16517;DHT22;8371;52.272;9.746;2023-11-19T05:09:22;12.70;87.90
16517;DHT22;8371;52.272;9.746;2023-11-19T05:11:48;12.70;87.90
16517;DHT22;8371;52.272;9.746;2023-11-19T05:14:14;12.80;87.80
16517;DHT22;8371;52.272;9.746;2023-11-19T05:16:40;12.80;87.70
16517;DHT22;8371;52.272;9.746;2023-11-19T05:19:06;12.80;87.60
16517;DHT22;8371;52.272;9.746;2023-11-19T05:21:32;12.80;87.40
16517;DHT22;8371;52.272;9.746;2023-11-19T05:23:59;12.80;87.40
16517;DHT22;8371;52.272;9.746;2023-11-19T05:26:24;12.80;87.10
16517;DHT22;8371;52.272;9.746;2023-11-19T05:28:50;12.80;87.10
16517;DHT22;8371;52.272;9.746;2023-11-19T05:31:17;12.80;87.10
16517;DHT22;8371;52.272;9.746;2023-11-19T05:33:43;12.80;87.30
16517;DHT22;8371;52.272;9.746;2023-11-19T05:36:11;12.70;87.30
16517;DHT22;8371;52.272;9.746;2023-11-19T05:38:38;12.70;87.60
16517;DHT22;8371;52.272;9.746;2023-11-19T05:41:04;12.70;87.80
16517;DHT22;8371;52.272;9.746;2023-11-19T05:43:31;12.70;87.90
16517;DHT22;8371;52.272;9.746;2023-11-19T05:45:56;12.70;88.00
16517;DHT22;8371;52.272;9.746;2023-11-19T05:48:22;12.80;88.00
16517;DHT22;8371;52.272;9.746;2023-11-19T05:50:48;12.80;88.20
16517;DHT22;8371;52.272;9.746;2023-11-19T05:53:16;12.90;88.30
16517;DHT22;8371;52.272;9.746;2023-11-19T05:55:41;12.90;88.50
16517;DHT22;8371;52.272;9.746;2023-11-19T05:58:12;13.00;89.40
16517;DHT22;8371;52.272;9.746;2023-11-19T06:00:38;13.00;89.30
16517;DHT22;8371;52.272;9.746;2023-11-19T06:03:07;13.00;88.50
16517;DHT22;8371;52.272;9.746;2023-11-19T06:05:33;13.00;88.40
16517;DHT22;8371;52.272;9.746;2023-11-19T06:07:58;13.10;88.60
16517;DHT22;8371;52.272;9.746;2023-11-19T06:10:24;13.10;88.50
16517;DHT22;8371;52.272;9.746;2023-11-19T06:12:55;13.10;88.50
16517;DHT22;8371;52.272;9.746;2023-11-19T06:15:22;13.20;88.60
16517;DHT22;8371;52.272;9.746;2023-11-19T06:17:48;13.10;88.70
16517;DHT22;8371;52.272;9.746;2023-11-19T06:20:16;13.20;89.10
16517;DHT22;8371;52.272;9.746;2023-11-19T06:22:42;13.20;89.10
16517;DHT22;8371;52.272;9.746;2023-11-19T06:25:09;13.30;89.10
16517;DHT22;8371;52.272;9.746;2023-11-19T06:27:36;13.30;89.30
16517;DHT22;8371;52.272;9.746;2023-11-19T06:30:02;13.40;89.40
16517;DHT22;8371;52.272;9.746;2023-11-19T06:32:28;13.50;89.50
16517;DHT22;8371;52.272;9.746;2023-11-19T06:34:54;13.60;89.50
16517;DHT22;8371;52.272;9.746;2023-11-19T06:37:20;13.60;89.60
16517;DHT22;8371;52.272;9.746;2023-11-19T06:39:46;13.70;90.10
16517;DHT22;8371;52.272;9.746;2023-11-19T06:42:11;13.80;89.40
16517;DHT22;8371;52.272;9.746;2023-11-19T06:44:37;13.90;89.20
16517;DHT22;8371;52.272;9.746;2023-11-19T06:47:03;14.00;89.10
16517;DHT22;8371;52.272;9.746;2023-11-19T06:49:28;14.00;89.00
16517;DHT22;8371;52.272;9.746;2023-11-19T06:51:54;14.10;88.80
16517;DHT22;8371;52.272;9.746;2023-11-19T06:54:20;14.10;88.50
16517;DHT22;8371;52.272;9.746;2023-11-19T06:56:46;14.30;88.50
16517;DHT22;8371;52.272;9.746;2023-11-19T06:59:12;14.20;88.20
16517;DHT22;8371;52.272;9.746;2023-11-19T07:01:38;14.30;88.10
16517;DHT22;8371;52.272;9.746;2023-11-19T07:04:04;14.30;88.00
16517;DHT22;8371;52.272;9.746;2023-11-19T07:06:31;14.40;87.70
16517;DHT22;8371;52.272;9.746;2023-11-19T07:08:58;14.40;87.60
16517;DHT22;8371;52.272;9.746;2023-11-19T07:11:24;14.40;87.50
16517;DHT22;8371;52.272;9.746;2023-11-19T07:13:49;14.40;87.30
16517;DHT22;8371;52.272;9.746;2023-11-19T07:16:15;14.40;87.20
16517;DHT22;8371;52.272;9.746;2023-11-19T07:18:41;14.50;87.10
16517;DHT22;8371;52.272;9.746;2023-11-19T07:21:09;14.50;86.90
16517;DHT22;8371;52.272;9.746;2023-11-19T07:23:36;14.50;86.60
16517;DHT22;8371;52.272;9.746;2023-11-19T07:26:06;14.50;86.40
16517;DHT22;8371;52.272;9.746;2023-11-19T07:28:35;14.50;86.20
16517;DHT22;8371;52.272;9.746;2023-11-19T07:31:00;14.50;86.20
16517;DHT22;8371;52.272;9.746;2023-11-19T07:33:26;14.50;86.30
16517;DHT22;8371;52.272;9.746;2023-11-19T07:35:52;14.50;86.30
16517;DHT22;8371;52.272;9.746;2023-11-19T07:38:17;14.50;86.30
16517;DHT22;8371;52.272;9.746;2023-11-19T07:40:43;14.50;86.30
16517;DHT22;8371;52.272;9.746;2023-11-19T07:43:09;14.50;86.30
16517;DHT22;8371;52.272;9.746;2023-11-19T07:45:35;14.50;86.30
16517;DHT22;8371;52.272;9.746;2023-11-19T07:48:00;14.60;86.20
16517;DHT22;8371;52.272;9.746;2023-11-19T07:50:27;14.60;86.10
16517;DHT22;8371;52.272;9.746;2023-11-19T07:52:53;14.60;86.10
16517;DHT22;8371;52.272;9.746;2023-11-19T07:55:18;14.60;86.00
16517;DHT22;8371;52.272;9.746;2023-11-19T07:57:44;14.70;86.00
16517;DHT22;8371;52.272;9.746;2023-11-19T08:00:11;14.70;85.80
16517;DHT22;8371;52.272;9.746;2023-11-19T08:02:38;14.70;85.70
16517;DHT22;8371;52.272;9.746;2023-11-19T08:05:04;14.70;85.40
16517;DHT22;8371;52.272;9.746;2023-11-19T08:07:30;14.70;85.20
16517;DHT22;8371;52.272;9.746;2023-11-19T08:09:56;14.80;85.20
16517;DHT22;8371;52.272;9.746;2023-11-19T08:12:22;14.80;85.00
16517;DHT22;8371;52.272;9.746;2023-11-19T08:14:51;14.80;84.80
16517;DHT22;8371;52.272;9.746;2023-11-19T08:17:17;14.80;84.70
16517;DHT22;8371;52.272;9.746;2023-11-19T08:19:43;14.80;84.80
16517;DHT22;8371;52.272;9.746;2023-11-19T08:22:08;14.90;84.80
16517;DHT22;8371;52.272;9.746;2023-11-19T08:24:39;14.80;84.70
16517;DHT22;8371;52.272;9.746;2023-11-19T08:27:06;14.90;84.50
16517;DHT22;8371;52.272;9.746;2023-11-19T08:29:31;14.90;84.60
16517;DHT22;8371;52.272;9.746;2023-11-19T08:31:57;14.90;84.40
16517;DHT22;8371;52.272;9.746;2023-11-19T08:34:23;14.90;84.30
16517;DHT22;8371;52.272;9.746;2023-11-19T08:36:51;14.90;84.40
16517;DHT22;8371;52.272;9.746;2023-11-19T08:39:19;15.00;83.70
16517;DHT22;8371;52.272;9.746;2023-11-19T08:41:47;15.00;84.10
16517;DHT22;8371;52.272;9.746;2023-11-19T08:44:14;15.00;83.90
16517;DHT22;8371;52.272;9.746;2023-11-19T08:46:48;15.00;84.10
16517;DHT22;8371;52.272;9.746;2023-11-19T08:49:14;15.00;83.50
16517;DHT22;8371;52.272;9.746;2023-11-19T08:51:40;15.10;83.80
16517;DHT22;8371;52.272;9.746;2023-11-19T08:54:07;15.10;83.90
16517;DHT22;8371;52.272;9.746;2023-11-19T08:56:33;15.10;83.80
16517;DHT22;8371;52.272;9.746;2023-11-19T08:59:00;15.10;83.50
16517;DHT22;8371;52.272;9.746;2023-11-19T09:01:25;15.10;83.60
16517;DHT22;8371;52.272;9.746;2023-11-19T09:03:51;15.10;83.40
16517;DHT22;8371;52.272;9.746;2023-11-19T09:06:17;15.10;83.20
16517;DHT22;8371;52.272;9.746;2023-11-19T09:08:43;15.10;83.30
16517;DHT22;8371;52.272;9.746;2023-11-19T09:11:09;15.10;83.20
16517;DHT22;8371;52.272;9.746;2023-11-19T09:13:35;15.10;83.00
16517;DHT22;8371;52.272;9.746;2023-11-19T09:16:01;15.10;83.20
16517;DHT22;8371;52.272;9.746;2023-11-19T09:18:30;15.10;83.20
16517;DHT22;8371;52.272;9.746;2023-11-19T09:20:58;15.10;83.10
16517;DHT22;8371;52.272;9.746;2023-11-19T09:23:24;15.10;83.20
16517;DHT22;8371;52.272;9.746;2023-11-19T09:25:54;15.10;83.20
16517;DHT22;8371;52.272;9.746;2023-11-19T09:28:20;15.10;83.80
16517;DHT22;8371;52.272;9.746;2023-11-19T09:30:46;15.10;83.30
16517;DHT22;8371;52.272;9.746;2023-11-19T09:33:11;15.20;83.50
16517;DHT22;8371;52.272;9.746;2023-11-19T09:35:37;15.20;83.50
16517;DHT22;8371;52.272;9.746;2023-11-19T09:38:03;15.30;83.60
16517;DHT22;8371;52.272;9.746;2023-11-19T09:40:31;15.30;83.60
16517;DHT22;8371;52.272;9.746;2023-11-19T09:42:57;15.40;83.60
16517;DHT22;8371;52.272;9.746;2023-11-19T09:45:25;15.40;83.30
16517;DHT22;8371;52.272;9.746;2023-11-19T09:47:53;15.50;83.10
16517;DHT22;8371;52.272;9.746;2023-11-19T09:50:20;15.60;83.10
16517;DHT22;8371;52.272;9.746;2023-11-19T09:52:47;15.70;83.10
16517;DHT22;8371;52.272;9.746;2023-11-19T09:55:12;15.70;83.00
16517;DHT22;8371;52.272;9.746;2023-11-19T09:57:39;15.80;82.90
16517;DHT22;8371;52.272;9.746;2023-11-19T10:00:08;15.80;82.80
16517;DHT22;8371;52.272;9.746;2023-11-19T10:02:36;15.90;82.60
16517;DHT22;8371;52.272;9.746;2023-11-19T10:05:09;15.90;82.50
16517;DHT22;8371;52.272;9.746;2023-11-19T10:07:36;16.00;82.40
16517;DHT22;8371;52.272;9.746;2023-11-19T10:10:06;16.00;82.10
16517;DHT22;8371;52.272;9.746;2023-11-19T10:12:33;16.10;81.90
16517;DHT22;8371;52.272;9.746;2023-11-19T10:14:59;16.20;82.20
16517;DHT22;8371;52.272;9.746;2023-11-19T10:17:28;16.20;81.90
16517;DHT22;8371;52.272;9.746;2023-11-19T10:19:55;16.30;81.70
16517;DHT22;8371;52.272;9.746;2023-11-19T10:22:22;16.40;81.70
16517;DHT22;8371;52.272;9.746;2023-11-19T10:24:48;16.40;81.40
16517;DHT22;8371;52.272;9.746;2023-11-19T10:27:14;16.40;80.40
16517;DHT22;8371;52.272;9.746;2023-11-19T10:29:46;16.50;80.20
16517;DHT22;8371;52.272;9.746;2023-11-19T10:32:12;16.50;80.10
16517;DHT22;8371;52.272;9.746;2023-11-19T10:34:39;16.50;80.50
16517;DHT22;8371;52.272;9.746;2023-11-19T10:37:05;16.50;80.40
16517;DHT22;8371;52.272;9.746;2023-11-19T10:39:51;16.50;80.00
16517;DHT22;8371;52.272;9.746;2023-11-19T10:42:14;16.60;80.10
16517;DHT22;8371;52.272;9.746;2023-11-19T10:44:33;16.50;80.10
16517;DHT22;8371;52.272;9.746;2023-11-19T10:47:01;16.50;79.90
16517;DHT22;8371;52.272;9.746;2023-11-19T10:49:27;16.50;80.10
16517;DHT22;8371;52.272;9.746;2023-11-19T10:51:53;16.50;79.50
16517;DHT22;8371;52.272;9.746;2023-11-19T10:54:22;16.50;80.00
16517;DHT22;8371;52.272;9.746;2023-11-19T10:56:52;16.50;80.00
16517;DHT22;8371;52.272;9.746;2023-11-19T10:59:18;16.50;80.50
16517;DHT22;8371;52.272;9.746;2023-11-19T11:01:45;16.50;79.70
16517;DHT22;8371;52.272;9.746;2023-11-19T11:04:19;16.50;79.60
16517;DHT22;8371;52.272;9.746;2023-11-19T11:06:45;16.50;79.50
16517;DHT22;8371;52.272;9.746;2023-11-19T11:09:13;16.50;79.40
16517;DHT22;8371;52.272;9.746;2023-11-19T11:11:40;16.50;79.20
16517;DHT22;8371;52.272;9.746;2023-11-19T11:14:13;16.50;79.70
16517;DHT22;8371;52.272;9.746;2023-11-19T11:16:46;16.60;79.20
16517;DHT22;8371;52.272;9.746;2023-11-19T11:19:12;16.60;79.10
16517;DHT22;8371;52.272;9.746;2023-11-19T11:21:40;16.60;79.50
16517;DHT22;8371;52.272;9.746;2023-11-19T11:29:35;16.60;78.90
16517;DHT22;8371;52.272;9.746;2023-11-19T11:32:16;16.60;79.30
16517;DHT22;8371;52.272;9.746;2023-11-19T11:35:07;16.60;79.00
16517;DHT22;8371;52.272;9.746;2023-11-19T11:37:35;16.70;79.20
16517;DHT22;8371;52.272;9.746;2023-11-19T11:40:02;16.60;78.80
16517;DHT22;8371;52.272;9.746;2023-11-19T11:42:33;16.60;78.50
16517;DHT22;8371;52.272;9.746;2023-11-19T11:45:00;16.60;78.90
16517;DHT22;8371;52.272;9.746;2023-11-19T11:50:13;16.50;78.90
16517;DHT22;8371;52.272;9.746;2023-11-19T11:55:36;16.60;79.00
16517;DHT22;8371;52.272;9.746;2023-11-19T11:58:06;16.60;78.60
16517;DHT22;8371;52.272;9.746;2023-11-19T12:00:33;16.60;78.50
16517;DHT22;8371;52.272;9.746;2023-11-19T12:03:01;16.60;78.50
16517;DHT22;8371;52.272;9.746;2023-11-19T12:05:27;16.60;78.50
16517;DHT22;8371;52.272;9.746;2023-11-19T12:07:58;16.50;77.60
16517;DHT22;8371;52.272;9.746;2023-11-19T12:10:25;16.50;78.30
16517;DHT22;8371;52.272;9.746;2023-11-19T12:12:59;16.50;78.30
16517;DHT22;8371;52.272;9.746;2023-11-19T12:15:25;16.50;78.20
16517;DHT22;8371;52.272;9.746;2023-11-19T12:17:55;16.50;78.30
16517;DHT22;8371;52.272;9.746;2023-11-19T12:20:27;16.60;78.60
16517;DHT22;8371;52.272;9.746;2023-11-19T12:22:51;16.60;78.50
16517;DHT22;8371;52.272;9.746;2023-11-19T12:25:18;16.60;78.20
16517;DHT22;8371;52.272;9.746;2023-11-19T12:27:47;16.70;78.20
16517;DHT22;8371;52.272;9.746;2023-11-19T12:30:26;16.70;78.00
16517;DHT22;8371;52.272;9.746;2023-11-19T12:32:45;16.80;77.90
16517;DHT22;8371;52.272;9.746;2023-11-19T12:35:12;16.70;77.60
16517;DHT22;8371;52.272;9.746;2023-11-19T12:37:50;16.80;77.60
16517;DHT22;8371;52.272;9.746;2023-11-19T12:40:24;16.70;77.30
16517;DHT22;8371;52.272;9.746;2023-11-19T12:42:51;16.60;77.30
16517;DHT22;8371;52.272;9.746;2023-11-19T12:45:18;16.70;77.40
16517;DHT22;8371;52.272;9.746;2023-11-19T12:47:47;16.70;77.30
16517;DHT22;8371;52.272;9.746;2023-11-19T12:50:14;16.70;76.90
16517;DHT22;8371;52.272;9.746;2023-11-19T12:52:39;16.60;76.70
16517;DHT22;8371;52.272;9.746;2023-11-19T12:55:28;16.70;76.90
16517;DHT22;8371;52.272;9.746;2023-11-19T12:57:53;16.60;76.40
16517;DHT22;8371;52.272;9.746;2023-11-19T13:00:24;16.50;76.50
16517;DHT22;8371;52.272;9.746;2023-11-19T13:02:52;16.50;76.60
16517;DHT22;8371;52.272;9.746;2023-11-19T13:05:32;16.40;76.70
16517;DHT22;8371;52.272;9.746;2023-11-19T13:08:07;16.40;76.90
16517;DHT22;8371;52.272;9.746;2023-11-19T13:10:49;16.30;76.80
16517;DHT22;8371;52.272;9.746;2023-11-19T13:13:06;16.30;77.00
16517;DHT22;8371;52.272;9.746;2023-11-19T13:15:34;16.20;77.00
16517;DHT22;8371;52.272;9.746;2023-11-19T13:18:01;16.20;77.10
16517;DHT22;8371;52.272;9.746;2023-11-19T13:20:27;16.20;77.20
16517;DHT22;8371;52.272;9.746;2023-11-19T13:22:59;16.10;77.30
16517;DHT22;8371;52.272;9.746;2023-11-19T13:25:26;16.10;77.30
16517;DHT22;8371;52.272;9.746;2023-11-19T13:27:52;16.10;77.40
16517;DHT22;8371;52.272;9.746;2023-11-19T13:30:18;16.00;78.30
16517;DHT22;8371;52.272;9.746;2023-11-19T13:32:44;16.00;77.50
16517;DHT22;8371;52.272;9.746;2023-11-19T13:35:13;15.90;77.60
16517;DHT22;8371;52.272;9.746;2023-11-19T13:37:39;15.90;77.80
16517;DHT22;8371;52.272;9.746;2023-11-19T13:40:09;15.80;77.80
16517;DHT22;8371;52.272;9.746;2023-11-19T13:42:42;15.80;77.90
16517;DHT22;8371;52.272;9.746;2023-11-19T13:45:12;15.90;77.90
16517;DHT22;8371;52.272;9.746;2023-11-19T13:47:43;15.90;77.90
16517;DHT22;8371;52.272;9.746;2023-11-19T13:50:14;15.90;78.00
16517;DHT22;8371;52.272;9.746;2023-11-19T13:52:42;15.90;78.00
16517;DHT22;8371;52.272;9.746;2023-11-19T13:55:11;15.80;77.80
16517;DHT22;8371;52.272;9.746;2023-11-19T13:57:38;15.80;77.80
16517;DHT22;8371;52.272;9.746;2023-11-19T14:00:06;15.80;77.80
16517;DHT22;8371;52.272;9.746;2023-11-19T14:02:35;15.80;77.90
16517;DHT22;8371;52.272;9.746;2023-11-19T14:05:01;15.80;77.90
16517;DHT22;8371;52.272;9.746;2023-11-19T14:07:27;15.80;78.00
16517;DHT22;8371;52.272;9.746;2023-11-19T14:09:53;15.80;78.00
16517;DHT22;8371;52.272;9.746;2023-11-19T14:12:19;15.80;78.00
16517;DHT22;8371;52.272;9.746;2023-11-19T14:14:45;15.80;77.90
16517;DHT22;8371;52.272;9.746;2023-11-19T14:17:11;15.80;78.00
16517;DHT22;8371;52.272;9.746;2023-11-19T14:19:37;15.80;78.00
16517;DHT22;8371;52.272;9.746;2023-11-19T14:22:05;15.70;78.00
16517;DHT22;8371;52.272;9.746;2023-11-19T14:24:31;15.80;78.10
16517;DHT22;8371;52.272;9.746;2023-11-19T14:26:57;15.80;78.10
16517;DHT22;8371;52.272;9.746;2023-11-19T14:29:24;15.80;77.80
16517;DHT22;8371;52.272;9.746;2023-11-19T14:31:52;15.80;77.90
16517;DHT22;8371;52.272;9.746;2023-11-19T14:34:20;15.80;77.60
16517;DHT22;8371;52.272;9.746;2023-11-19T14:36:46;15.80;77.50
16517;DHT22;8371;52.272;9.746;2023-11-19T14:39:13;15.70;77.30
16517;DHT22;8371;52.272;9.746;2023-11-19T14:41:38;15.70;77.40
16517;DHT22;8371;52.272;9.746;2023-11-19T14:44:05;15.70;77.40
16517;DHT22;8371;52.272;9.746;2023-11-19T14:46:31;15.60;77.20
16517;DHT22;8371;52.272;9.746;2023-11-19T14:48:56;15.60;77.60
16517;DHT22;8371;52.272;9.746;2023-11-19T14:51:22;15.60;77.60
16517;DHT22;8371;52.272;9.746;2023-11-19T14:53:48;15.60;77.60
16517;DHT22;8371;52.272;9.746;2023-11-19T14:56:14;15.60;77.60
16517;DHT22;8371;52.272;9.746;2023-11-19T14:58:40;15.60;77.60
16517;DHT22;8371;52.272;9.746;2023-11-19T15:01:06;15.60;77.60
16517;DHT22;8371;52.272;9.746;2023-11-19T15:03:33;15.60;77.60
16517;DHT22;8371;52.272;9.746;2023-11-19T15:05:59;15.50;77.40
16517;DHT22;8371;52.272;9.746;2023-11-19T15:08:25;15.50;77.60
16517;DHT22;8371;52.272;9.746;2023-11-19T15:10:51;15.40;77.30
16517;DHT22;8371;52.272;9.746;2023-11-19T15:13:18;15.50;77.50
16517;DHT22;8371;52.272;9.746;2023-11-19T15:15:44;15.40;77.40
16517;DHT22;8371;52.272;9.746;2023-11-19T15:18:09;15.40;77.40
16517;DHT22;8371;52.272;9.746;2023-11-19T15:20:35;15.40;77.50
16517;DHT22;8371;52.272;9.746;2023-11-19T15:23:01;15.40;77.50
16517;DHT22;8371;52.272;9.746;2023-11-19T15:25:28;15.30;77.50
16517;DHT22;8371;52.272;9.746;2023-11-19T15:27:53;15.30;77.50
16517;DHT22;8371;52.272;9.746;2023-11-19T15:30:19;15.30;78.00
16517;DHT22;8371;52.272;9.746;2023-11-19T15:32:45;15.30;77.50
16517;DHT22;8371;52.272;9.746;2023-11-19T15:35:11;15.30;77.30
16517;DHT22;8371;52.272;9.746;2023-11-19T15:37:37;15.20;77.60
16517;DHT22;8371;52.272;9.746;2023-11-19T15:40:06;15.20;78.40
16517;DHT22;8371;52.272;9.746;2023-11-19T15:42:34;15.30;77.70
16517;DHT22;8371;52.272;9.746;2023-11-19T15:45:00;15.20;77.70
16517;DHT22;8371;52.272;9.746;2023-11-19T15:47:26;15.20;77.80
16517;DHT22;8371;52.272;9.746;2023-11-19T15:49:51;14.90;77.60
16517;DHT22;8371;52.272;9.746;2023-11-19T15:52:17;15.10;77.80
16517;DHT22;8371;52.272;9.746;2023-11-19T15:54:43;15.10;77.90
16517;DHT22;8371;52.272;9.746;2023-11-19T15:57:10;15.00;77.90